Time;durP1;ratioP1;P1;durP2;ratioP2;P2;SDS_P1;SDS_P2;PMS_P1;PMS_P2;Temp;Humidity;BMP_temperature;BMP_pressure;BME280_temperature;BME280_humidity;BME280_pressure;Samples;Min_cycle;Max_cycle;Signal;HPM_P1;HPM_P2
2023/04/21 00:00:17;;;;;;;;;;;9.10;99.90;;;;;;4954612;28;20556;-66
2023/04/21 00:02:45;;;;;;;;;;;9.10;99.90;;;;;;4952412;29;20603;-66
2023/04/21 00:05:12;;;;;;;;;;;9.10;99.90;;;;;;4937332;29;19921;-67
2023/04/21 00:07:39;;;;;;;;;;;9.10;99.90;;;;;;4953986;28;19953;-67
2023/04/21 00:10:06;;;;;;;;;;;9.20;99.90;;;;;;4952939;29;20009;-67
2023/04/21 00:12:31;;;;;;;;;;;9.10;99.90;;;;;;4953826;28;19930;-67
2023/04/21 00:14:57;;;;;;;;;;;9.10;99.90;;;;;;4953481;28;19911;-67
2023/04/21 00:17:24;;;;;;;;;;;9.20;99.90;;;;;;4953185;29;19915;-67
2023/04/21 00:19:50;;;;;;;;;;;9.10;99.90;;;;;;4953202;28;20038;-67
2023/04/21 00:22:17;;;;;;;;;;;9.10;99.90;;;;;;4949853;28;19934;-67
2023/04/21 00:24:42;;;;;;;;;;;9.10;99.90;;;;;;4952336;29;20005;-67
2023/04/21 00:27:08;;;;;;;;;;;9.10;99.90;;;;;;4953623;29;20053;-66
2023/04/21 00:29:34;;;;;;;;;;;9.20;99.90;;;;;;4948943;29;20771;-67
2023/04/21 00:32:00;;;;;;;;;;;9.10;99.90;;;;;;4951328;28;19926;-66
2023/04/21 00:34:26;;;;;;;;;;;9.20;99.90;;;;;;4953528;28;20037;-67
2023/04/21 00:36:52;;;;;;;;;;;9.10;99.90;;;;;;4956594;29;20008;-67
2023/04/21 00:39:17;;;;;;;;;;;9.10;99.90;;;;;;4956133;29;20061;-67
2023/04/21 00:41:43;;;;;;;;;;;9.20;99.90;;;;;;4956811;29;19980;-67
2023/04/21 00:44:09;;;;;;;;;;;9.10;99.90;;;;;;4956283;29;20109;-67
2023/04/21 00:46:35;;;;;;;;;;;9.10;99.90;;;;;;4957038;28;20646;-67
2023/04/21 00:49:02;;;;;;;;;;;9.10;99.90;;;;;;4954945;28;19920;-67
2023/04/21 00:51:28;;;;;;;;;;;9.20;99.90;;;;;;4940389;29;19925;-67
2023/04/21 00:53:54;;;;;;;;;;;9.10;99.90;;;;;;4955742;29;20024;-67
2023/04/21 00:56:20;;;;;;;;;;;9.10;99.90;;;;;;4955871;29;20367;-67
2023/04/21 00:58:46;;;;;;;;;;;9.10;99.90;;;;;;4955700;29;20509;-67
2023/04/21 01:01:12;;;;;;;;;;;9.10;99.90;;;;;;4955450;29;19918;-67
2023/04/21 01:03:38;;;;;;;;;;;9.10;99.90;;;;;;4954869;29;19914;-67
2023/04/21 01:06:03;;;;;;;;;;;9.10;99.90;;;;;;4955617;29;19925;-67
2023/04/21 01:08:29;;;;;;;;;;;9.10;99.90;;;;;;4955168;29;19910;-67
2023/04/21 01:10:55;;;;;;;;;;;9.10;99.90;;;;;;4955707;29;19914;-67
2023/04/21 01:13:21;;;;;;;;;;;9.10;99.90;;;;;;4955716;29;19919;-67
2023/04/21 01:15:49;;;;;;;;;;;9.10;99.90;;;;;;4955660;29;19915;-66
2023/04/21 01:18:17;;;;;;;;;;;9.00;99.90;;;;;;4955691;29;20663;-67
2023/04/21 01:20:43;;;;;;;;;;;9.10;99.90;;;;;;4957079;28;19997;-67
2023/04/21 01:23:09;;;;;;;;;;;9.10;99.90;;;;;;4939432;29;20213;-67
2023/04/21 01:25:35;;;;;;;;;;;9.10;99.90;;;;;;4955885;29;19925;-67
2023/04/21 01:28:01;;;;;;;;;;;9.10;99.90;;;;;;4939507;29;19953;-67
2023/04/21 01:30:27;;;;;;;;;;;9.10;99.90;;;;;;4955962;28;20377;-67
2023/04/21 01:32:53;;;;;;;;;;;9.10;99.90;;;;;;4956266;29;19969;-67
2023/04/21 01:35:18;;;;;;;;;;;9.10;99.90;;;;;;4954950;29;19922;-67
2023/04/21 01:37:45;;;;;;;;;;;9.10;99.90;;;;;;4956072;28;19969;-67
2023/04/21 01:40:11;;;;;;;;;;;9.00;99.90;;;;;;4955283;29;20438;-67
2023/04/21 01:42:37;;;;;;;;;;;9.00;99.90;;;;;;4954994;29;20787;-67
2023/04/21 01:45:03;;;;;;;;;;;9.10;99.90;;;;;;4939028;29;19922;-67
2023/04/21 01:47:29;;;;;;;;;;;9.10;99.90;;;;;;4953082;28;19918;-67
2023/04/21 01:49:54;;;;;;;;;;;9.00;99.90;;;;;;4955682;29;19921;-67
2023/04/21 01:52:21;;;;;;;;;;;9.00;99.90;;;;;;4954259;29;19928;-67
2023/04/21 01:54:47;;;;;;;;;;;9.00;99.90;;;;;;4954816;29;19918;-67
2023/04/21 01:57:13;;;;;;;;;;;9.00;99.90;;;;;;4938649;29;19926;-67
2023/04/21 01:59:38;;;;;;;;;;;9.00;99.90;;;;;;4955068;29;19945;-67
2023/04/21 02:02:04;;;;;;;;;;;9.00;99.90;;;;;;4955034;29;19959;-67
2023/04/21 02:04:30;;;;;;;;;;;9.00;99.90;;;;;;4939290;29;20016;-67
2023/04/21 02:06:55;;;;;;;;;;;8.90;99.90;;;;;;4955720;28;19969;-67
2023/04/21 02:09:21;;;;;;;;;;;8.90;99.90;;;;;;4953646;29;20239;-67
2023/04/21 02:11:46;;;;;;;;;;;8.90;99.90;;;;;;4954769;29;19952;-67
2023/04/21 02:14:12;;;;;;;;;;;8.90;99.90;;;;;;4954322;29;20420;-67
2023/04/21 02:16:39;;;;;;;;;;;9.00;99.90;;;;;;4954877;29;19950;-67
2023/04/21 02:19:05;;;;;;;;;;;9.00;99.90;;;;;;4954837;28;20016;-67
2023/04/21 02:21:31;;;;;;;;;;;8.90;99.90;;;;;;4954679;29;19945;-67
2023/04/21 02:23:57;;;;;;;;;;;8.90;99.90;;;;;;4954448;29;19926;-67
2023/04/21 02:26:22;;;;;;;;;;;8.90;99.90;;;;;;4953449;29;19911;-67
2023/04/21 02:28:49;;;;;;;;;;;8.90;99.90;;;;;;4954268;29;19910;-67
2023/04/21 02:31:15;;;;;;;;;;;8.90;99.90;;;;;;4953301;29;20001;-67
2023/04/21 02:33:40;;;;;;;;;;;8.90;99.90;;;;;;4954403;29;19950;-67
2023/04/21 02:36:06;;;;;;;;;;;8.90;99.90;;;;;;4954169;28;20420;-67
2023/04/21 02:38:31;;;;;;;;;;;8.90;99.90;;;;;;4937912;29;19910;-67
2023/04/21 02:40:57;;;;;;;;;;;8.90;99.90;;;;;;4953444;28;20294;-67
2023/04/21 02:43:23;;;;;;;;;;;8.90;99.90;;;;;;4951908;29;19927;-67
2023/04/21 02:45:49;;;;;;;;;;;8.90;99.90;;;;;;4955677;28;19946;-67
2023/04/21 02:48:14;;;;;;;;;;;8.80;99.90;;;;;;4936313;29;20239;-67
2023/04/21 02:50:41;;;;;;;;;;;8.80;99.90;;;;;;4955073;28;20600;-67
2023/04/21 02:53:07;;;;;;;;;;;8.90;99.90;;;;;;4954624;28;19925;-67
2023/04/21 02:55:32;;;;;;;;;;;8.90;99.90;;;;;;4953565;29;19918;-67
2023/04/21 02:57:58;;;;;;;;;;;8.80;99.90;;;;;;4952551;28;20315;-67
2023/04/21 03:00:24;;;;;;;;;;;8.80;99.90;;;;;;4970109;28;19915;-67
2023/04/21 03:02:52;;;;;;;;;;;8.80;99.90;;;;;;4954762;28;19925;-68
2023/04/21 03:05:17;;;;;;;;;;;8.80;99.90;;;;;;4953835;28;20012;-67
2023/04/21 03:07:43;;;;;;;;;;;8.80;99.90;;;;;;4951017;29;20394;-67
2023/04/21 03:10:09;;;;;;;;;;;8.80;99.90;;;;;;4951468;29;19914;-67
2023/04/21 03:12:35;;;;;;;;;;;8.80;99.90;;;;;;4937398;29;19972;-67
2023/04/21 03:15:04;;;;;;;;;;;8.70;99.90;;;;;;4953469;29;19914;-67
2023/04/21 03:17:30;;;;;;;;;;;8.90;99.90;;;;;;4953234;29;19914;-67
2023/04/21 03:19:55;;;;;;;;;;;8.70;99.90;;;;;;4952940;29;19930;-67
2023/04/21 03:22:21;;;;;;;;;;;8.70;99.90;;;;;;4953615;29;19952;-67
2023/04/21 03:24:46;;;;;;;;;;;8.70;99.90;;;;;;4937907;29;19914;-67
2023/04/21 03:27:12;;;;;;;;;;;8.70;99.90;;;;;;4954691;29;19997;-67
2023/04/21 03:29:38;;;;;;;;;;;8.70;99.90;;;;;;4953277;29;19925;-67
2023/04/21 03:32:03;;;;;;;;;;;8.70;99.90;;;;;;4954366;29;20631;-67
2023/04/21 03:34:29;;;;;;;;;;;8.70;99.90;;;;;;4952138;29;19969;-67
2023/04/21 03:36:55;;;;;;;;;;;8.70;99.90;;;;;;4953843;28;19914;-67
2023/04/21 03:39:21;;;;;;;;;;;8.70;99.90;;;;;;4953055;29;19911;-67
2023/04/21 03:41:47;;;;;;;;;;;8.70;99.90;;;;;;4952032;29;20243;-67
2023/04/21 03:44:13;;;;;;;;;;;8.70;99.90;;;;;;4953393;29;19961;-67
2023/04/21 03:46:39;;;;;;;;;;;8.70;99.90;;;;;;4953282;28;19954;-67
2023/04/21 03:49:07;;;;;;;;;;;8.70;99.90;;;;;;4952830;29;19915;-67
2023/04/21 03:51:34;;;;;;;;;;;8.60;99.90;;;;;;4953584;28;19918;-67
2023/04/21 03:54:00;;;;;;;;;;;8.70;99.90;;;;;;4953007;29;20242;-67
2023/04/21 03:56:25;;;;;;;;;;;8.70;99.90;;;;;;4953922;29;19918;-67
2023/04/21 03:58:52;;;;;;;;;;;8.60;99.90;;;;;;4953020;29;20005;-67
2023/04/21 04:01:19;;;;;;;;;;;8.60;99.90;;;;;;4937306;29;19944;-67
2023/04/21 04:03:45;;;;;;;;;;;8.60;99.90;;;;;;4952290;29;19914;-67
2023/04/21 04:06:10;;;;;;;;;;;8.60;99.90;;;;;;4953867;28;19921;-67
2023/04/21 04:08:36;;;;;;;;;;;8.70;99.90;;;;;;4953094;28;19925;-68
2023/04/21 04:11:02;;;;;;;;;;;8.70;99.90;;;;;;4956658;29;19940;-67
2023/04/21 04:13:28;;;;;;;;;;;8.60;99.90;;;;;;4953713;28;19965;-67
2023/04/21 04:15:54;;;;;;;;;;;8.60;99.90;;;;;;4957482;29;19945;-67
2023/04/21 04:18:21;;;;;;;;;;;8.50;99.90;;;;;;4955917;28;19914;-67
2023/04/21 04:20:46;;;;;;;;;;;8.60;99.90;;;;;;4956211;29;20517;-67
2023/04/21 04:23:12;;;;;;;;;;;8.60;99.90;;;;;;4957836;28;20163;-68
2023/04/21 04:25:38;;;;;;;;;;;8.50;99.90;;;;;;4953176;29;19969;-68
2023/04/21 04:28:04;;;;;;;;;;;8.60;99.90;;;;;;4956970;28;20009;-67
2023/04/21 04:30:31;;;;;;;;;;;8.60;99.90;;;;;;4957589;29;19914;-67
2023/04/21 04:32:59;;;;;;;;;;;8.50;99.90;;;;;;4956222;29;19918;-67
2023/04/21 04:35:24;;;;;;;;;;;8.50;99.90;;;;;;4939744;29;19977;-67
2023/04/21 04:37:50;;;;;;;;;;;8.50;99.90;;;;;;4971817;28;20280;-67
2023/04/21 04:40:15;;;;;;;;;;;8.50;99.90;;;;;;4956284;29;19922;-67
2023/04/21 04:42:41;;;;;;;;;;;8.50;99.90;;;;;;4940106;29;19922;-67
2023/04/21 04:45:07;;;;;;;;;;;8.50;99.90;;;;;;4956204;29;20215;-67
2023/04/21 04:47:33;;;;;;;;;;;8.50;99.90;;;;;;4940690;29;19914;-67
2023/04/21 04:49:59;;;;;;;;;;;8.50;99.90;;;;;;4956166;29;20340;-67
2023/04/21 04:52:25;;;;;;;;;;;8.50;99.90;;;;;;4956499;28;19918;-67
2023/04/21 04:54:50;;;;;;;;;;;8.50;99.90;;;;;;4956249;29;19918;-67
2023/04/21 04:57:17;;;;;;;;;;;8.50;99.90;;;;;;4956754;29;19926;-67
2023/04/21 04:59:43;;;;;;;;;;;8.60;99.90;;;;;;4957394;28;19915;-67
2023/04/21 05:02:09;;;;;;;;;;;8.50;99.90;;;;;;4955955;29;19914;-68
2023/04/21 05:04:35;;;;;;;;;;;8.50;99.90;;;;;;4955414;29;19961;-68
2023/04/21 05:07:01;;;;;;;;;;;8.50;99.90;;;;;;4955824;29;19950;-68
2023/04/21 05:09:26;;;;;;;;;;;8.50;99.90;;;;;;4955031;29;20437;-67
2023/04/21 05:11:52;;;;;;;;;;;8.60;99.90;;;;;;4957084;28;19930;-68
2023/04/21 05:14:18;;;;;;;;;;;8.50;99.90;;;;;;4956925;28;19927;-67
2023/04/21 05:16:43;;;;;;;;;;;8.50;99.90;;;;;;4955057;29;20005;-68
2023/04/21 05:19:09;;;;;;;;;;;8.50;99.90;;;;;;4955531;29;20047;-68
2023/04/21 05:21:35;;;;;;;;;;;8.50;99.90;;;;;;4955761;28;20001;-68
2023/04/21 05:24:00;;;;;;;;;;;8.50;99.90;;;;;;4955865;29;19914;-68
2023/04/21 05:26:26;;;;;;;;;;;8.50;99.90;;;;;;4956133;28;20197;-68
2023/04/21 05:28:52;;;;;;;;;;;8.60;99.90;;;;;;4955822;29;20363;-67
2023/04/21 05:31:18;;;;;;;;;;;8.60;99.90;;;;;;4946506;29;19925;-68
2023/04/21 05:33:44;;;;;;;;;;;8.60;99.90;;;;;;4955685;29;20021;-68
2023/04/21 05:36:09;;;;;;;;;;;8.70;99.90;;;;;;4954573;29;19941;-67
2023/04/21 05:38:35;;;;;;;;;;;8.70;99.90;;;;;;4957814;28;19918;-67
2023/04/21 05:41:01;;;;;;;;;;;8.70;99.90;;;;;;4960859;28;20359;-68
2023/04/21 05:43:27;;;;;;;;;;;8.80;99.90;;;;;;4964535;28;19914;-67
2023/04/21 05:45:53;;;;;;;;;;;8.80;99.90;;;;;;4963398;28;19915;-67
2023/04/21 05:48:18;;;;;;;;;;;8.90;99.90;;;;;;4968734;28;19910;-67
2023/04/21 05:50:44;;;;;;;;;;;8.90;99.90;;;;;;4957161;28;19921;-67
2023/04/21 05:53:10;;;;;;;;;;;8.90;99.90;;;;;;4963023;28;19914;-67
2023/04/21 05:55:36;;;;;;;;;;;8.90;99.90;;;;;;4959473;28;20354;-67
2023/04/21 05:58:02;;;;;;;;;;;9.00;99.90;;;;;;4954022;29;20022;-67
2023/04/21 06:00:28;;;;;;;;;;;9.00;99.90;;;;;;4941187;29;19918;-67
2023/04/21 06:02:54;;;;;;;;;;;9.10;99.90;;;;;;4954867;29;19926;-67
2023/04/21 06:05:20;;;;;;;;;;;9.10;99.90;;;;;;4953574;28;19914;-68
2023/04/21 06:07:45;;;;;;;;;;;9.10;99.90;;;;;;4956258;29;19977;-67
2023/04/21 06:10:11;;;;;;;;;;;9.20;99.90;;;;;;4939549;29;19953;-67
2023/04/21 06:12:37;;;;;;;;;;;9.20;99.90;;;;;;4955051;29;19925;-67
2023/04/21 06:15:03;;;;;;;;;;;9.20;99.90;;;;;;4951550;29;19918;-67
2023/04/21 06:17:29;;;;;;;;;;;9.30;99.90;;;;;;4950283;29;19914;-68
2023/04/21 06:19:55;;;;;;;;;;;9.40;99.90;;;;;;4968916;28;20291;-68
2023/04/21 06:22:21;;;;;;;;;;;9.40;99.90;;;;;;4953429;29;19910;-67
2023/04/21 06:24:47;;;;;;;;;;;9.50;99.90;;;;;;4954227;29;19914;-67
2023/04/21 06:27:12;;;;;;;;;;;9.50;99.90;;;;;;4937746;29;20408;-67
2023/04/21 06:29:38;;;;;;;;;;;9.50;99.90;;;;;;4954020;29;19910;-67
2023/04/21 06:32:04;;;;;;;;;;;9.60;99.90;;;;;;4953514;28;19918;-67
2023/04/21 06:34:29;;;;;;;;;;;9.80;99.90;;;;;;4953261;29;19977;-67
2023/04/21 06:36:55;;;;;;;;;;;9.80;99.90;;;;;;4955458;28;19917;-67
2023/04/21 06:39:21;;;;;;;;;;;10.10;99.90;;;;;;4952665;29;19969;-67
2023/04/21 06:41:46;;;;;;;;;;;10.10;99.90;;;;;;4956471;28;19918;-67
2023/04/21 06:44:12;;;;;;;;;;;10.10;99.90;;;;;;4958660;28;20315;-67
2023/04/21 06:46:41;;;;;;;;;;;10.10;99.90;;;;;;4962371;28;19969;-67
2023/04/21 06:49:07;;;;;;;;;;;10.20;99.90;;;;;;4948851;28;19914;-68
2023/04/21 06:51:34;;;;;;;;;;;10.30;99.90;;;;;;4958540;28;19940;-67
2023/04/21 06:54:00;;;;;;;;;;;10.40;99.90;;;;;;4963121;28;19922;-67
2023/04/21 06:56:26;;;;;;;;;;;10.50;99.90;;;;;;4955670;28;19910;-68
2023/04/21 06:58:52;;;;;;;;;;;10.60;99.90;;;;;;4954357;28;19921;-67
2023/04/21 07:01:18;;;;;;;;;;;10.60;99.90;;;;;;4954890;28;19914;-70
2023/04/21 07:03:44;;;;;;;;;;;10.70;99.90;;;;;;4953136;28;19949;-71
2023/04/21 07:06:11;;;;;;;;;;;10.80;99.90;;;;;;4960848;28;19915;-71
2023/04/21 07:08:37;;;;;;;;;;;11.00;99.90;;;;;;4937690;29;20547;-71
2023/04/21 07:11:02;;;;;;;;;;;11.10;99.90;;;;;;4938515;29;19990;-71
2023/04/21 07:13:28;;;;;;;;;;;11.30;99.90;;;;;;4954887;29;19984;-71
2023/04/21 07:15:53;;;;;;;;;;;11.40;99.90;;;;;;4938161;29;19981;-71
2023/04/21 07:18:19;;;;;;;;;;;11.40;99.90;;;;;;4938360;28;19989;-71
2023/04/21 07:20:45;;;;;;;;;;;11.50;99.90;;;;;;4953775;29;19961;-71
2023/04/21 07:23:12;;;;;;;;;;;11.60;99.90;;;;;;4954072;29;19922;-71
2023/04/21 07:25:38;;;;;;;;;;;11.70;99.90;;;;;;4969397;28;19961;-71
2023/04/21 07:28:03;;;;;;;;;;;11.90;99.90;;;;;;4953470;29;19953;-71
2023/04/21 07:30:29;;;;;;;;;;;12.00;99.90;;;;;;4954255;29;19964;-71
2023/04/21 07:32:57;;;;;;;;;;;12.10;99.90;;;;;;4954472;29;19918;-71
2023/04/21 07:35:25;;;;;;;;;;;12.10;99.90;;;;;;4955543;28;19950;-71
2023/04/21 07:37:51;;;;;;;;;;;12.30;99.90;;;;;;4952757;29;19937;-72
2023/04/21 07:40:16;;;;;;;;;;;12.40;99.90;;;;;;4953773;29;20378;-72
2023/04/21 07:42:45;;;;;;;;;;;12.60;99.90;;;;;;4950865;28;19914;-71
2023/04/21 07:45:11;;;;;;;;;;;12.70;99.90;;;;;;4954057;28;19914;-71
2023/04/21 07:47:36;;;;;;;;;;;12.70;99.90;;;;;;4953227;29;20139;-71
2023/04/21 07:50:02;;;;;;;;;;;12.90;99.90;;;;;;4937934;29;20355;-71
2023/04/21 07:52:27;;;;;;;;;;;13.00;99.90;;;;;;4921630;29;19918;-71
2023/04/21 07:54:53;;;;;;;;;;;13.10;99.90;;;;;;4953897;29;19950;-71
2023/04/21 07:57:19;;;;;;;;;;;13.10;99.90;;;;;;4952763;29;20331;-71
2023/04/21 07:59:44;;;;;;;;;;;13.20;99.90;;;;;;4937206;29;20323;-67
2023/04/21 08:02:11;;;;;;;;;;;13.40;99.90;;;;;;4953118;29;19954;-67
2023/04/21 08:04:37;;;;;;;;;;;13.40;99.90;;;;;;4952543;29;20712;-67
2023/04/21 08:07:03;;;;;;;;;;;13.30;99.90;;;;;;4936907;29;19943;-67
2023/04/21 08:09:29;;;;;;;;;;;13.40;99.90;;;;;;4953235;29;20362;-67
2023/04/21 08:11:56;;;;;;;;;;;13.40;99.90;;;;;;4953499;28;19926;-67
2023/04/21 08:14:21;;;;;;;;;;;13.50;99.90;;;;;;4952783;29;19911;-67
2023/04/21 08:16:47;;;;;;;;;;;13.60;99.90;;;;;;4953073;29;19914;-67
2023/04/21 08:19:12;;;;;;;;;;;13.70;99.90;;;;;;4950586;29;20332;-67
2023/04/21 08:21:38;;;;;;;;;;;13.70;99.90;;;;;;4952099;29;19914;-67
2023/04/21 08:24:04;;;;;;;;;;;13.80;99.90;;;;;;4952788;29;19914;-67
2023/04/21 08:26:32;;;;;;;;;;;13.80;99.90;;;;;;4951670;29;19981;-67
2023/04/21 08:28:59;;;;;;;;;;;13.80;99.90;;;;;;4953001;29;20264;-68
2023/04/21 08:31:25;;;;;;;;;;;13.90;99.90;;;;;;4952889;29;19989;-68
2023/04/21 08:33:50;;;;;;;;;;;13.90;99.90;;;;;;4952413;29;20644;-67
2023/04/21 08:36:16;;;;;;;;;;;13.90;99.90;;;;;;4953167;29;19929;-67
2023/04/21 08:38:42;;;;;;;;;;;14.10;99.90;;;;;;4952919;29;19961;-67
2023/04/21 08:41:08;;;;;;;;;;;14.10;99.90;;;;;;4952540;29;19914;-67
2023/04/21 08:43:33;;;;;;;;;;;14.30;99.90;;;;;;4953196;28;19914;-67
2023/04/21 08:45:59;;;;;;;;;;;14.40;99.90;;;;;;4952216;29;19922;-67
2023/04/21 08:48:25;;;;;;;;;;;14.40;99.90;;;;;;4952799;29;20001;-68
2023/04/21 08:50:50;;;;;;;;;;;14.50;99.90;;;;;;4952825;29;20239;-67
2023/04/21 08:53:16;;;;;;;;;;;14.60;99.90;;;;;;4952028;29;19926;-68
2023/04/21 08:55:42;;;;;;;;;;;14.70;99.90;;;;;;4954075;28;20413;-67
2023/04/21 08:58:08;;;;;;;;;;;14.70;99.90;;;;;;4957193;28;20235;-67
2023/04/21 09:00:34;;;;;;;;;;;14.70;99.90;;;;;;4956381;29;19956;-67
2023/04/21 09:03:00;;;;;;;;;;;14.80;99.90;;;;;;4956443;28;19944;-67
2023/04/21 09:05:26;;;;;;;;;;;14.90;99.90;;;;;;4956559;28;19914;-67
2023/04/21 09:08:10;;;;;;;;;;;14.90;99.90;;;;;;4956324;28;19914;-67
2023/04/21 09:10:46;;;;;;;;;;;15.00;99.90;;;;;;4952227;29;20327;-67
2023/04/21 09:13:12;;;;;;;;;;;15.00;99.90;;;;;;4940201;29;19922;-67
2023/04/21 09:15:39;;;;;;;;;;;15.20;99.90;;;;;;4939898;29;20299;-68
2023/04/21 09:18:09;;;;;;;;;;;15.30;99.90;;;;;;4955789;29;20339;-67
2023/04/21 09:20:34;;;;;;;;;;;15.30;99.90;;;;;;4950187;29;20296;-67
2023/04/21 09:23:03;;;;;;;;;;;15.40;99.90;;;;;;4955110;29;19914;-67
2023/04/21 09:25:28;;;;;;;;;;;15.50;99.90;;;;;;4939925;29;19914;-67
2023/04/21 09:27:54;;;;;;;;;;;15.60;99.90;;;;;;4955005;29;20508;-68
2023/04/21 09:30:21;;;;;;;;;;;15.60;99.90;;;;;;4956164;29;19914;-67
2023/04/21 09:32:48;;;;;;;;;;;15.70;99.90;;;;;;4955525;29;20009;-68
2023/04/21 09:35:13;;;;;;;;;;;15.80;99.90;;;;;;4954324;28;20215;-67
2023/04/21 09:37:40;;;;;;;;;;;15.90;99.90;;;;;;4955527;29;19915;-67
2023/04/21 09:40:05;;;;;;;;;;;16.00;99.90;;;;;;4954999;29;19953;-68
2023/04/21 09:42:31;;;;;;;;;;;16.10;99.90;;;;;;4954976;29;19964;-67
2023/04/21 09:44:57;;;;;;;;;;;16.20;99.90;;;;;;4971374;28;19914;-68
2023/04/21 09:47:23;;;;;;;;;;;16.30;99.90;;;;;;4955390;29;20254;-68
2023/04/21 09:49:51;;;;;;;;;;;16.50;99.90;;;;;;4954129;29;20493;-67
2023/04/21 09:52:19;;;;;;;;;;;16.50;99.90;;;;;;4954861;29;20303;-68
2023/04/21 09:54:55;;;;;;;;;;;16.60;99.90;;;;;;4952108;28;19957;-68
2023/04/21 09:57:23;;;;;;;;;;;16.70;99.90;;;;;;4927083;29;19914;-68
2023/04/21 09:59:50;;;;;;;;;;;16.90;99.40;;;;;;4933729;29;19915;-68
2023/04/21 10:02:15;;;;;;;;;;;17.00;99.50;;;;;;4930446;29;19973;-68
2023/04/21 10:04:41;;;;;;;;;;;17.00;97.20;;;;;;4925976;29;20324;-67
2023/04/21 10:07:08;;;;;;;;;;;17.20;97.20;;;;;;4929460;29;20012;-67
2023/04/21 10:09:35;;;;;;;;;;;17.20;97.10;;;;;;4919435;29;19962;-67
2023/04/21 10:12:01;;;;;;;;;;;17.40;97.20;;;;;;4936215;29;19926;-67
2023/04/21 10:14:27;;;;;;;;;;;17.40;97.90;;;;;;4935779;29;19918;-67
2023/04/21 10:17:03;;;;;;;;;;;17.60;97.10;;;;;;4939592;29;19919;-67
2023/04/21 10:19:30;;;;;;;;;;;17.70;95.10;;;;;;4917929;29;19910;-67
2023/04/21 10:21:56;;;;;;;;;;;17.80;93.80;;;;;;4938623;29;19918;-67
2023/04/21 10:24:22;;;;;;;;;;;17.90;91.60;;;;;;4936953;29;19914;-67
2023/04/21 10:26:51;;;;;;;;;;;17.80;92.00;;;;;;4926597;29;19915;-67
2023/04/21 10:29:21;;;;;;;;;;;17.90;93.20;;;;;;4942204;29;20013;-67
2023/04/21 10:31:51;;;;;;;;;;;18.00;93.30;;;;;;4938262;29;20331;-68
2023/04/21 10:34:37;;;;;;;;;;;18.00;91.10;;;;;;4921950;29;19926;-67
2023/04/21 10:37:03;;;;;;;;;;;18.30;88.30;;;;;;4933070;29;20001;-70
2023/04/21 10:39:30;;;;;;;;;;;18.20;82.40;;;;;;4936318;29;20025;-75
2023/04/21 10:42:14;;;;;;;;;;;18.20;88.60;;;;;;4907942;29;19926;-75
2023/04/21 10:44:43;;;;;;;;;;;18.40;87.60;;;;;;4938150;29;19963;-76
2023/04/21 10:47:08;;;;;;;;;;;18.50;84.50;;;;;;4940265;29;20227;-76
2023/04/21 10:49:38;;;;;;;;;;;18.40;80.70;;;;;;4926437;29;20247;-75
2023/04/21 10:52:07;;;;;;;;;;;18.60;81.50;;;;;;4921000;29;19915;-75
2023/04/21 10:54:42;;;;;;;;;;;18.60;79.10;;;;;;4945428;28;19924;-76
2023/04/21 10:57:09;;;;;;;;;;;18.80;82.60;;;;;;4950706;29;19922;-75
2023/04/21 10:59:37;;;;;;;;;;;18.90;80.90;;;;;;4954679;28;19921;-76
2023/04/21 11:02:07;;;;;;;;;;;18.80;78.80;;;;;;4938485;29;19912;-74
2023/04/21 11:04:32;;;;;;;;;;;19.00;77.10;;;;;;4936026;29;19910;-74
2023/04/21 11:07:08;;;;;;;;;;;19.10;73.20;;;;;;4954824;28;20243;-75
2023/04/21 11:09:34;;;;;;;;;;;19.20;75.50;;;;;;4939195;29;19967;-76
2023/04/21 11:12:01;;;;;;;;;;;19.30;69.90;;;;;;4953150;29;20302;-75
2023/04/21 11:14:29;;;;;;;;;;;19.40;69.30;;;;;;4939051;28;19938;-75
2023/04/21 11:16:55;;;;;;;;;;;19.20;67.40;;;;;;4953137;29;19914;-74
2023/04/21 11:19:23;;;;;;;;;;;19.40;69.40;;;;;;4932491;29;19914;-74
2023/04/21 11:21:49;;;;;;;;;;;19.40;69.50;;;;;;4953538;29;19925;-74
2023/04/21 11:24:14;;;;;;;;;;;19.30;71.10;;;;;;4954091;29;19919;-74
2023/04/21 11:26:41;;;;;;;;;;;19.30;70.80;;;;;;4936643;29;19914;-75
2023/04/21 11:29:07;;;;;;;;;;;19.50;72.10;;;;;;4938520;29;20012;-75
2023/04/21 11:31:33;;;;;;;;;;;19.70;71.30;;;;;;4937432;29;20422;-74
2023/04/21 11:33:59;;;;;;;;;;;19.90;71.70;;;;;;4937733;29;19949;-75
2023/04/21 11:36:26;;;;;;;;;;;19.90;73.40;;;;;;4969660;28;20005;-75
2023/04/21 11:38:52;;;;;;;;;;;19.80;70.90;;;;;;4935739;29;19914;-73
2023/04/21 11:41:21;;;;;;;;;;;19.70;69.40;;;;;;4953081;29;19918;-73
2023/04/21 11:43:47;;;;;;;;;;;19.60;70.00;;;;;;4954077;29;19925;-73
2023/04/21 11:46:19;;;;;;;;;;;19.70;67.10;;;;;;4952940;29;19914;-73
2023/04/21 11:48:45;;;;;;;;;;;19.70;65.20;;;;;;4947196;29;19969;-73
2023/04/21 11:51:15;;;;;;;;;;;20.00;65.00;;;;;;4937862;29;19937;-73
2023/04/21 11:53:41;;;;;;;;;;;20.00;62.30;;;;;;4957940;28;20383;-74
2023/04/21 11:56:07;;;;;;;;;;;19.90;61.00;;;;;;4937279;28;20037;-75
2023/04/21 11:58:33;;;;;;;;;;;19.80;61.90;;;;;;4939034;28;19921;-74
2023/04/21 12:01:08;;;;;;;;;;;19.60;62.00;;;;;;4943832;28;19918;-74
2023/04/21 12:03:33;;;;;;;;;;;19.50;61.20;;;;;;4966383;28;20005;-75
2023/04/21 12:05:59;;;;;;;;;;;19.60;62.70;;;;;;4948670;28;20439;-75
2023/04/21 12:08:27;;;;;;;;;;;19.70;61.10;;;;;;4947595;28;19910;-74
2023/04/21 12:10:53;;;;;;;;;;;19.60;58.20;;;;;;4945077;28;19914;-73
2023/04/21 12:13:22;;;;;;;;;;;19.70;57.60;;;;;;4961943;28;19919;-74
2023/04/21 12:15:47;;;;;;;;;;;19.80;56.10;;;;;;4932429;28;19926;-75
2023/04/21 12:18:14;;;;;;;;;;;20.00;56.40;;;;;;4918763;28;19914;-75
2023/04/21 12:20:50;;;;;;;;;;;20.30;52.90;;;;;;4925526;28;19914;-73
2023/04/21 12:23:15;;;;;;;;;;;20.30;51.70;;;;;;4954063;28;19921;-74
2023/04/21 12:25:41;;;;;;;;;;;20.00;51.70;;;;;;4945002;28;20307;-73
2023/04/21 12:28:07;;;;;;;;;;;20.20;53.40;;;;;;4943754;28;19922;-74
2023/04/21 12:30:33;;;;;;;;;;;20.30;52.40;;;;;;4920480;28;20320;-74
2023/04/21 12:33:02;;;;;;;;;;;20.30;52.10;;;;;;4939151;28;19918;-75
2023/04/21 12:35:27;;;;;;;;;;;20.40;52.80;;;;;;4957206;28;19925;-75
2023/04/21 12:37:54;;;;;;;;;;;20.40;53.90;;;;;;4944044;28;19914;-75
2023/04/21 12:40:19;;;;;;;;;;;20.70;53.40;;;;;;4937362;28;20409;-75
2023/04/21 12:42:47;;;;;;;;;;;20.70;52.40;;;;;;4953140;28;19953;-74
2023/04/21 12:45:13;;;;;;;;;;;20.70;52.20;;;;;;4932689;28;20009;-75
2023/04/21 12:47:40;;;;;;;;;;;20.70;51.20;;;;;;4937243;28;20001;-75
2023/04/21 12:50:07;;;;;;;;;;;20.90;53.50;;;;;;4963175;28;20346;-75
2023/04/21 12:52:32;;;;;;;;;;;21.00;49.30;;;;;;4937776;29;19914;-71
2023/04/21 12:54:58;;;;;;;;;;;20.80;50.10;;;;;;4946355;29;19933;-71
2023/04/21 12:57:23;;;;;;;;;;;20.70;48.90;;;;;;4919099;29;19911;-72
2023/04/21 12:59:49;;;;;;;;;;;20.90;50.90;;;;;;4946405;29;20316;-71
2023/04/21 13:02:15;;;;;;;;;;;21.40;51.90;;;;;;4939793;29;19982;-71
2023/04/21 13:04:41;;;;;;;;;;;21.40;50.30;;;;;;4919250;29;19919;-71
2023/04/21 13:07:07;;;;;;;;;;;21.40;51.30;;;;;;4933759;29;19915;-72
2023/04/21 13:09:32;;;;;;;;;;;21.70;50.90;;;;;;4950393;29;19917;-72
2023/04/21 13:11:58;;;;;;;;;;;21.70;52.00;;;;;;4933381;29;19919;-71
2023/04/21 13:14:24;;;;;;;;;;;21.70;48.90;;;;;;4949640;29;19915;-71
2023/04/21 13:16:49;;;;;;;;;;;21.50;46.10;;;;;;4918827;29;20342;-72
2023/04/21 13:19:15;;;;;;;;;;;21.40;48.10;;;;;;4941321;29;20315;-71
2023/04/21 13:21:40;;;;;;;;;;;21.70;48.30;;;;;;4939105;29;19915;-72
2023/04/21 13:24:08;;;;;;;;;;;21.70;48.50;;;;;;4931723;29;19923;-71
2023/04/21 13:26:34;;;;;;;;;;;22.00;48.90;;;;;;4916917;29;20506;-71
2023/04/21 13:29:00;;;;;;;;;;;22.30;48.20;;;;;;4932377;29;19915;-71
2023/04/21 13:31:25;;;;;;;;;;;22.20;47.70;;;;;;4931856;29;19915;-72
2023/04/21 13:33:51;;;;;;;;;;;22.10;46.50;;;;;;4930327;29;19921;-71
2023/04/21 13:36:17;;;;;;;;;;;22.00;46.90;;;;;;4914522;29;20305;-71
2023/04/21 13:38:43;;;;;;;;;;;21.90;48.20;;;;;;4913241;29;19923;-72
2023/04/21 13:41:09;;;;;;;;;;;22.10;47.60;;;;;;4914016;29;20578;-71
2023/04/21 13:43:35;;;;;;;;;;;22.10;48.20;;;;;;4914007;29;19966;-71
2023/04/21 13:46:01;;;;;;;;;;;22.10;48.00;;;;;;4915106;29;19958;-71
2023/04/21 13:48:28;;;;;;;;;;;22.20;47.60;;;;;;4916088;29;19915;-71
2023/04/21 13:50:54;;;;;;;;;;;22.10;47.00;;;;;;4914640;29;20344;-72
2023/04/21 13:53:20;;;;;;;;;;;22.10;48.70;;;;;;4914609;29;19927;-72
2023/04/21 13:55:46;;;;;;;;;;;22.40;48.10;;;;;;4919572;29;20256;-73
2023/04/21 13:58:13;;;;;;;;;;;22.30;47.60;;;;;;4916604;29;20000;-72
2023/04/21 14:00:39;;;;;;;;;;;22.50;46.10;;;;;;4908737;29;19919;-72
2023/04/21 14:03:05;;;;;;;;;;;22.50;46.20;;;;;;4915100;29;20234;-72
2023/04/21 14:05:31;;;;;;;;;;;22.80;46.30;;;;;;4894550;29;19919;-73
2023/04/21 14:07:58;;;;;;;;;;;22.90;45.60;;;;;;4913798;29;19946;-72
2023/04/21 14:10:23;;;;;;;;;;;22.80;45.50;;;;;;4923571;29;20372;-72
2023/04/21 14:12:49;;;;;;;;;;;22.90;46.00;;;;;;4915038;29;20009;-72
2023/04/21 14:15:15;;;;;;;;;;;23.10;46.00;;;;;;4913990;29;19976;-73
2023/04/21 14:17:40;;;;;;;;;;;23.10;43.80;;;;;;4896176;29;19922;-72